»·PEaware :: N2612J KTOA-0O2

N2612J :: KTOA-0O2

FLIGHT INFORMATION

Flight Status: Arrived
Operator: Privately registered:
United States
More flights under this callsign
Pilot: Andrew F. (4171)
Aircraft: DEHAVILLAND DH-6 TWIN OTTER
(DHC6)
More flights by this aircraft type
Origin: KTOA Zamperini
United States
Destination: 0O2 Baker
United States
More flights between these airports :: More routes between these airports
Route: +LIMBO V64 SLI V459 BERRI V201 PMD
File this flight plan on PilotEdge
Remarks:
Altitude:
(Current/Filed)
11,000ft
Speed:
(Current/Filed)
140kts
Departed: 11-Mar-16 06:40 PM
Arrived: 11-Mar-16 07:59 PM
Distance/Time
Traveled:
143nm/1:19
Distance/Time
To Go:
Arrived

Flight Plot

Page will automatically refresh every two minutes.


Map Options




Map Legend


Flown Route
Filed Route
Departure Airport
Arrival Airport
Navaid (VOR, NDB)
Fix

Horizontal Profiles

Position Reports

Time Latitude Longitude Heading Altitude Ground
Speed
11-Mar-16 18:02 33.801931 -118.343020 218 112ft 0kts
11-Mar-16 18:03 33.801930 -118.343020 218 112ft 0kts
11-Mar-16 18:04 33.801929 -118.343022 218 112ft 0kts
11-Mar-16 18:05 33.801856 -118.342985 116 112ft 0kts
11-Mar-16 18:06 33.801856 -118.342984 116 112ft 0kts
11-Mar-16 18:07 33.801856 -118.342983 116 112ft 0kts
11-Mar-16 18:08 33.801855 -118.342983 116 112ft 0kts
11-Mar-16 18:09 33.801855 -118.342982 116 112ft 0kts
11-Mar-16 18:10 33.801855 -118.342981 116 112ft 0kts
11-Mar-16 18:11 33.801854 -118.342980 116 112ft 0kts
11-Mar-16 18:12 33.801854 -118.342979 116 112ft 0kts
11-Mar-16 18:13 33.801853 -118.342978 116 112ft 0kts
11-Mar-16 18:14 33.801853 -118.342978 116 112ft 0kts
11-Mar-16 18:15 33.801853 -118.342977 116 112ft 0kts
11-Mar-16 18:16 33.801852 -118.342974 116 112ft 0kts
11-Mar-16 18:17 33.801848 -118.342920 80 112ft 0kts
11-Mar-16 18:18 33.801848 -118.342918 80 112ft 0kts
11-Mar-16 18:19 33.801848 -118.342917 80 112ft 0kts
11-Mar-16 18:20 33.801848 -118.342916 80 112ft 0kts
11-Mar-16 18:21 33.802032 -118.342277 112 112ft 5kts
11-Mar-16 18:22 33.799428 -118.338335 131 112ft 7kts
11-Mar-16 18:23 33.799419 -118.336960 124 112ft 6kts
11-Mar-16 18:24 33.798486 -118.333907 63 112ft 9kts
11-Mar-16 18:25 33.798549 -118.333783 37 112ft 0kts
11-Mar-16 18:26 33.798550 -118.333783 37 112ft 0kts
11-Mar-16 18:27 33.798550 -118.333782 37 112ft 0kts
11-Mar-16 18:28 33.798551 -118.333782 37 112ft 0kts
11-Mar-16 18:29 33.798552 -118.333781 37 112ft 0kts
11-Mar-16 18:30 33.799118 -118.333472 34 112ft 7kts
11-Mar-16 18:31 33.799164 -118.333434 34 112ft 0kts
11-Mar-16 18:32 33.799867 -118.333309 314 112ft 9kts
11-Mar-16 18:33 33.808380 -118.345542 306 409ft 95kts
11-Mar-16 18:34 33.823829 -118.368989 301 1712ft 81kts
11-Mar-16 18:35 33.839520 -118.389899 301 2959ft 91kts
11-Mar-16 18:36 33.855061 -118.413509 254 4283ft 88kts
11-Mar-16 18:37 33.829943 -118.395101 142 5058ft 164kts
11-Mar-16 18:38 33.796017 -118.354144 142 5002ft 172kts
11-Mar-16 18:39 33.766240 -118.316746 141 5883ft 133kts
11-Mar-16 18:40 33.744234 -118.286630 142 7082ft 108kts
11-Mar-16 18:41 33.726686 -118.259864 114 8189ft 111kts
11-Mar-16 18:42 33.736202 -118.221582 74 9208ft 120kts
11-Mar-16 18:43 33.747217 -118.182255 76 10254ft 127kts
11-Mar-16 18:44 33.759112 -118.139875 80 11029ft 152kts
11-Mar-16 18:45 33.775307 -118.083614 74 10996ft 192kts
11-Mar-16 18:46 33.808596 -118.039690 340 10989ft 188kts
11-Mar-16 18:47 33.848776 -118.073065 310 10999ft 174kts
11-Mar-16 18:48 33.886288 -118.108811 309 11004ft 170kts
11-Mar-16 18:49 33.929078 -118.136421 332 11007ft 182kts
11-Mar-16 18:50 33.972620 -118.163414 317 11006ft 173kts
11-Mar-16 18:51 34.015073 -118.192021 322 11000ft 176kts
11-Mar-16 18:52 34.059413 -118.217555 323 11000ft 175kts
11-Mar-16 18:53 34.103472 -118.242767 323 10999ft 174kts
11-Mar-16 18:54 34.147030 -118.268731 322 10995ft 174kts
11-Mar-16 18:55 34.191520 -118.292361 352 10980ft 187kts
11-Mar-16 18:56 34.243214 -118.276706 15 10995ft 193kts
11-Mar-16 18:57 34.292645 -118.250041 24 11008ft 194kts
11-Mar-16 18:58 34.340704 -118.219700 24 11010ft 194kts
11-Mar-16 18:59 34.390029 -118.192583 19 11014ft 193kts
11-Mar-16 19:00 34.439558 -118.167453 20 11008ft 190kts
11-Mar-16 19:01 34.485036 -118.142793 20 11588ft 161kts
11-Mar-16 19:02 34.523589 -118.121888 19 12416ft 144kts
11-Mar-16 19:03 34.560194 -118.102052 22 13082ft 153kts
11-Mar-16 19:04 34.604743 -118.077947 21 13039ft 191kts
11-Mar-16 19:05 34.648252 -118.044298 79 12998ft 178kts
11-Mar-16 19:06 34.653845 -117.986214 106 12991ft 166kts
11-Mar-16 19:07 34.647740 -117.931528 91 12992ft 169kts
11-Mar-16 19:08 34.654797 -117.875241 93 12986ft 167kts
11-Mar-16 19:09 34.658611 -117.828355 91 12981ft 167kts
11-Mar-16 19:10 34.664887 -117.772117 90 12980ft 171kts
11-Mar-16 19:11 34.671947 -117.713130 90 12972ft 178kts
11-Mar-16 19:12 34.678688 -117.654068 90 12970ft 175kts
11-Mar-16 19:13 34.685737 -117.595620 90 12967ft 173kts
11-Mar-16 19:14 34.692687 -117.537491 91 12967ft 173kts
11-Mar-16 19:15 34.699308 -117.479271 91 12964ft 174kts
11-Mar-16 19:16 34.706034 -117.420954 91 12963ft 173kts
11-Mar-16 19:17 34.712752 -117.363016 91 12964ft 173kts
11-Mar-16 19:18 34.719392 -117.305069 92 12965ft 173kts
11-Mar-16 19:19 34.726227 -117.247060 92 12963ft 173kts
11-Mar-16 19:20 34.732706 -117.189128 93 12963ft 172kts
11-Mar-16 19:21 34.738975 -117.131676 92 12983ft 170kts
11-Mar-16 19:22 34.745734 -117.074523 92 12994ft 171kts
11-Mar-16 19:23 34.752674 -117.016850 92 12994ft 172kts
11-Mar-16 19:24 34.759747 -116.959386 94 12990ft 170kts
11-Mar-16 19:25 34.762137 -116.902720 100 12991ft 167kts
11-Mar-16 19:26 34.762185 -116.846570 104 12997ft 164kts
11-Mar-16 19:27 34.764062 -116.790250 99 12998ft 168kts
11-Mar-16 19:28 34.768888 -116.732943 94 12996ft 171kts
11-Mar-16 19:29 34.775557 -116.675616 94 12995ft 170kts
11-Mar-16 19:30 34.781442 -116.618672 96 12993ft 169kts
11-Mar-16 19:31 34.787591 -116.560871 80 12693ft 192kts
11-Mar-16 19:32 34.829590 -116.513631 43 11788ft 210kts
11-Mar-16 19:33 34.875865 -116.472619 33 10800ft 200kts
11-Mar-16 19:34 34.921523 -116.435448 33 9803ft 193kts
11-Mar-16 19:35 34.962455 -116.391937 41 8881ft 199kts
11-Mar-16 19:36 35.001917 -116.347434 42 7866ft 185kts
11-Mar-16 19:37 35.040682 -116.308067 36 6837ft 178kts
11-Mar-16 19:38 35.079750 -116.271780 35 5855ft 174kts
11-Mar-16 19:39 35.116032 -116.238022 36 5400ft 144kts
11-Mar-16 19:40 35.145500 -116.210430 35 5063ft 131kts
11-Mar-16 19:41 35.175336 -116.182888 35 4108ft 134kts
11-Mar-16 19:42 35.205205 -116.155544 35 3147ft 133kts
11-Mar-16 19:43 35.234609 -116.125836 33 2217ft 132kts
11-Mar-16 19:44 35.258783 -116.107514 333 1878ft 87kts
11-Mar-16 19:45 35.274046 -116.078121 21 1501ft 111kts
11-Mar-16 19:46 35.295076 -116.083771 1 1364ft 103kts
11-Mar-16 19:47 35.284210 -116.071683 183 1841ft 88kts
11-Mar-16 19:48 35.274689 -116.077821 331 1488ft 107kts
11-Mar-16 19:49 35.297662 -116.087025 0 1328ft 92kts
11-Mar-16 19:50 35.287609 -116.072202 183 1701ft 74kts
11-Mar-16 19:51 35.270970 -116.074492 293 1470ft 70kts
11-Mar-16 19:52 35.286433 -116.083112 345 931ft 12kts
11-Mar-16 19:53 35.286171 -116.082739 159 931ft 9kts
11-Mar-16 19:54 35.285291 -116.081819 163 931ft 0kts

Navigation Log

Ident Type
Flight plan parsing failed, navigation log unavailable